sensor_id;sensor_type;location;lat;lon;timestamp;P1;durP1;ratioP1;P2;durP2;ratioP2
32347;SDS011;18821;44.800;10.326;2023-04-24T00:00:20;12.98;;;2.90;;
32347;SDS011;18821;44.800;10.326;2023-04-24T00:02:46;8.05;;;2.45;;
32347;SDS011;18821;44.800;10.326;2023-04-24T00:05:15;5.28;;;3.08;;
32347;SDS011;18821;44.800;10.326;2023-04-24T00:07:45;6.72;;;2.72;;
32347;SDS011;18821;44.800;10.326;2023-04-24T00:10:11;4.78;;;2.50;;
32347;SDS011;18821;44.800;10.326;2023-04-24T00:12:37;2.92;;;2.20;;
32347;SDS011;18821;44.800;10.326;2023-04-24T00:15:04;14.43;;;3.20;;
32347;SDS011;18821;44.800;10.326;2023-04-24T00:17:30;9.18;;;2.60;;
32347;SDS011;18821;44.800;10.326;2023-04-24T00:19:56;4.97;;;2.75;;
32347;SDS011;18821;44.800;10.326;2023-04-24T00:22:27;7.50;;;2.75;;
32347;SDS011;18821;44.800;10.326;2023-04-24T00:24:53;8.27;;;2.80;;
32347;SDS011;18821;44.800;10.326;2023-04-24T00:27:20;7.05;;;2.80;;
32347;SDS011;18821;44.800;10.326;2023-04-24T00:29:46;10.25;;;3.38;;
32347;SDS011;18821;44.800;10.326;2023-04-24T00:32:12;7.07;;;3.10;;
32347;SDS011;18821;44.800;10.326;2023-04-24T00:34:39;5.90;;;2.97;;
32347;SDS011;18821;44.800;10.326;2023-04-24T00:37:05;11.30;;;4.20;;
32347;SDS011;18821;44.800;10.326;2023-04-24T00:39:32;8.13;;;3.78;;
32347;SDS011;18821;44.800;10.326;2023-04-24T00:41:58;7.68;;;3.55;;
32347;SDS011;18821;44.800;10.326;2023-04-24T00:44:24;10.23;;;4.57;;
32347;SDS011;18821;44.800;10.326;2023-04-24T00:46:50;10.20;;;4.22;;
32347;SDS011;18821;44.800;10.326;2023-04-24T00:49:22;11.20;;;4.30;;
32347;SDS011;18821;44.800;10.326;2023-04-24T00:51:49;8.20;;;4.25;;
32347;SDS011;18821;44.800;10.326;2023-04-24T00:54:16;10.52;;;4.45;;
32347;SDS011;18821;44.800;10.326;2023-04-24T00:56:43;9.82;;;4.50;;
32347;SDS011;18821;44.800;10.326;2023-04-24T00:59:13;9.90;;;4.78;;
32347;SDS011;18821;44.800;10.326;2023-04-24T01:01:42;6.53;;;3.72;;
32347;SDS011;18821;44.800;10.326;2023-04-24T01:04:09;10.90;;;4.03;;
32347;SDS011;18821;44.800;10.326;2023-04-24T01:06:40;10.50;;;3.72;;
32347;SDS011;18821;44.800;10.326;2023-04-24T01:09:08;9.07;;;3.92;;
32347;SDS011;18821;44.800;10.326;2023-04-24T01:11:36;7.03;;;4.28;;
32347;SDS011;18821;44.800;10.326;2023-04-24T01:14:04;8.82;;;3.85;;
32347;SDS011;18821;44.800;10.326;2023-04-24T01:16:30;7.70;;;3.67;;
32347;SDS011;18821;44.800;10.326;2023-04-24T01:18:56;8.73;;;3.80;;
32347;SDS011;18821;44.800;10.326;2023-04-24T01:21:22;10.02;;;3.80;;
32347;SDS011;18821;44.800;10.326;2023-04-24T01:23:50;8.93;;;5.00;;
32347;SDS011;18821;44.800;10.326;2023-04-24T01:26:17;8.30;;;4.18;;
32347;SDS011;18821;44.800;10.326;2023-04-24T01:28:45;5.80;;;4.35;;
32347;SDS011;18821;44.800;10.326;2023-04-24T01:31:11;9.10;;;4.43;;
32347;SDS011;18821;44.800;10.326;2023-04-24T01:33:37;8.85;;;4.53;;
32347;SDS011;18821;44.800;10.326;2023-04-24T01:36:03;11.73;;;5.40;;
32347;SDS011;18821;44.800;10.326;2023-04-24T01:38:31;10.50;;;5.18;;
32347;SDS011;18821;44.800;10.326;2023-04-24T01:40:58;8.30;;;5.05;;
32347;SDS011;18821;44.800;10.326;2023-04-24T01:43:25;10.43;;;5.35;;
32347;SDS011;18821;44.800;10.326;2023-04-24T01:45:51;7.95;;;4.45;;
32347;SDS011;18821;44.800;10.326;2023-04-24T01:48:16;8.43;;;5.40;;
32347;SDS011;18821;44.800;10.326;2023-04-24T01:50:43;10.38;;;5.25;;
32347;SDS011;18821;44.800;10.326;2023-04-24T01:53:11;13.35;;;6.45;;
32347;SDS011;18821;44.800;10.326;2023-04-24T01:55:37;8.40;;;5.88;;
32347;SDS011;18821;44.800;10.326;2023-04-24T01:58:03;12.35;;;5.82;;
32347;SDS011;18821;44.800;10.326;2023-04-24T02:00:29;10.73;;;6.63;;
32347;SDS011;18821;44.800;10.326;2023-04-24T02:02:55;13.07;;;5.93;;
32347;SDS011;18821;44.800;10.326;2023-04-24T02:05:25;12.40;;;6.18;;
32347;SDS011;18821;44.800;10.326;2023-04-24T02:07:51;10.13;;;6.20;;
32347;SDS011;18821;44.800;10.326;2023-04-24T02:10:17;12.50;;;6.07;;
32347;SDS011;18821;44.800;10.326;2023-04-24T02:12:43;13.82;;;6.82;;
32347;SDS011;18821;44.800;10.326;2023-04-24T02:15:09;12.68;;;6.57;;
32347;SDS011;18821;44.800;10.326;2023-04-24T02:17:36;14.32;;;6.45;;
32347;SDS011;18821;44.800;10.326;2023-04-24T02:20:03;9.02;;;6.78;;
32347;SDS011;18821;44.800;10.326;2023-04-24T02:22:30;11.35;;;7.03;;
32347;SDS011;18821;44.800;10.326;2023-04-24T02:25:00;13.05;;;7.70;;
32347;SDS011;18821;44.800;10.326;2023-04-24T02:27:26;10.85;;;6.60;;
32347;SDS011;18821;44.800;10.326;2023-04-24T02:29:52;11.13;;;6.60;;
32347;SDS011;18821;44.800;10.326;2023-04-24T02:32:18;13.05;;;6.55;;
32347;SDS011;18821;44.800;10.326;2023-04-24T02:34:44;9.60;;;6.35;;
32347;SDS011;18821;44.800;10.326;2023-04-24T02:37:11;10.13;;;6.20;;
32347;SDS011;18821;44.800;10.326;2023-04-24T02:39:37;10.75;;;6.70;;
32347;SDS011;18821;44.800;10.326;2023-04-24T02:42:03;13.98;;;7.13;;
32347;SDS011;18821;44.800;10.326;2023-04-24T02:44:29;9.30;;;7.22;;
32347;SDS011;18821;44.800;10.326;2023-04-24T02:46:56;13.30;;;7.65;;
32347;SDS011;18821;44.800;10.326;2023-04-24T02:49:22;10.40;;;6.88;;
32347;SDS011;18821;44.800;10.326;2023-04-24T02:51:48;12.20;;;7.18;;
32347;SDS011;18821;44.800;10.326;2023-04-24T02:54:14;14.07;;;7.38;;
32347;SDS011;18821;44.800;10.326;2023-04-24T02:56:40;12.13;;;7.88;;
32347;SDS011;18821;44.800;10.326;2023-04-24T02:59:07;13.18;;;8.20;;
32347;SDS011;18821;44.800;10.326;2023-04-24T03:01:33;11.38;;;7.70;;
32347;SDS011;18821;44.800;10.326;2023-04-24T03:03:59;15.77;;;8.30;;
32347;SDS011;18821;44.800;10.326;2023-04-24T03:06:25;11.85;;;7.93;;
32347;SDS011;18821;44.800;10.326;2023-04-24T03:08:52;11.80;;;7.53;;
32347;SDS011;18821;44.800;10.326;2023-04-24T03:11:19;11.68;;;7.38;;
32347;SDS011;18821;44.800;10.326;2023-04-24T03:13:45;13.40;;;7.95;;
32347;SDS011;18821;44.800;10.326;2023-04-24T03:16:10;11.77;;;7.45;;
32347;SDS011;18821;44.800;10.326;2023-04-24T03:18:36;13.70;;;7.78;;
32347;SDS011;18821;44.800;10.326;2023-04-24T03:21:04;9.65;;;7.53;;
32347;SDS011;18821;44.800;10.326;2023-04-24T03:23:30;14.98;;;8.38;;
32347;SDS011;18821;44.800;10.326;2023-04-24T03:25:56;12.60;;;8.32;;
32347;SDS011;18821;44.800;10.326;2023-04-24T03:28:23;10.10;;;7.75;;
32347;SDS011;18821;44.800;10.326;2023-04-24T03:31:03;14.57;;;8.30;;
32347;SDS011;18821;44.800;10.326;2023-04-24T03:33:32;13.82;;;8.27;;
32347;SDS011;18821;44.800;10.326;2023-04-24T03:36:00;13.60;;;9.20;;
32347;SDS011;18821;44.800;10.326;2023-04-24T03:38:33;19.83;;;8.75;;
32347;SDS011;18821;44.800;10.326;2023-04-24T03:41:06;13.27;;;8.65;;
32347;SDS011;18821;44.800;10.326;2023-04-24T03:43:39;16.50;;;8.88;;
32347;SDS011;18821;44.800;10.326;2023-04-24T03:46:05;11.32;;;8.35;;
32347;SDS011;18821;44.800;10.326;2023-04-24T03:48:38;13.10;;;8.23;;
32347;SDS011;18821;44.800;10.326;2023-04-24T03:51:06;13.70;;;8.18;;
32347;SDS011;18821;44.800;10.326;2023-04-24T03:53:34;12.07;;;8.18;;
32347;SDS011;18821;44.800;10.326;2023-04-24T03:56:00;9.32;;;7.97;;
32347;SDS011;18821;44.800;10.326;2023-04-24T03:58:26;14.35;;;8.23;;
32347;SDS011;18821;44.800;10.326;2023-04-24T04:00:54;15.20;;;7.95;;
32347;SDS011;18821;44.800;10.326;2023-04-24T04:03:40;15.73;;;8.18;;
32347;SDS011;18821;44.800;10.326;2023-04-24T04:06:06;16.60;;;8.63;;
32347;SDS011;18821;44.800;10.326;2023-04-24T04:08:32;14.32;;;8.88;;
32347;SDS011;18821;44.800;10.326;2023-04-24T04:10:58;12.75;;;9.38;;
32347;SDS011;18821;44.800;10.326;2023-04-24T04:13:24;13.73;;;8.80;;
32347;SDS011;18821;44.800;10.326;2023-04-24T04:15:50;13.70;;;8.93;;
32347;SDS011;18821;44.800;10.326;2023-04-24T04:18:16;17.52;;;8.57;;
32347;SDS011;18821;44.800;10.326;2023-04-24T04:20:42;13.43;;;8.90;;
32347;SDS011;18821;44.800;10.326;2023-04-24T04:23:10;12.43;;;8.48;;
32347;SDS011;18821;44.800;10.326;2023-04-24T04:25:52;15.90;;;8.95;;
32347;SDS011;18821;44.800;10.326;2023-04-24T04:28:22;17.73;;;10.40;;
32347;SDS011;18821;44.800;10.326;2023-04-24T04:30:50;16.00;;;9.07;;
32347;SDS011;18821;44.800;10.326;2023-04-24T04:33:22;17.27;;;9.80;;
32347;SDS011;18821;44.800;10.326;2023-04-24T04:35:49;14.75;;;9.77;;
32347;SDS011;18821;44.800;10.326;2023-04-24T04:38:20;16.73;;;9.75;;
32347;SDS011;18821;44.800;10.326;2023-04-24T04:40:53;18.05;;;9.93;;
32347;SDS011;18821;44.800;10.326;2023-04-24T04:43:23;16.13;;;11.18;;
32347;SDS011;18821;44.800;10.326;2023-04-24T04:45:53;16.58;;;9.85;;
32347;SDS011;18821;44.800;10.326;2023-04-24T04:48:45;15.98;;;10.23;;
32347;SDS011;18821;44.800;10.326;2023-04-24T04:51:11;15.35;;;10.35;;
32347;SDS011;18821;44.800;10.326;2023-04-24T04:53:38;16.15;;;10.73;;
32347;SDS011;18821;44.800;10.326;2023-04-24T04:56:04;15.70;;;10.38;;
32347;SDS011;18821;44.800;10.326;2023-04-24T04:58:36;18.77;;;10.45;;
32347;SDS011;18821;44.800;10.326;2023-04-24T05:01:03;21.45;;;10.95;;
32347;SDS011;18821;44.800;10.326;2023-04-24T05:03:34;19.98;;;11.05;;
32347;SDS011;18821;44.800;10.326;2023-04-24T05:06:07;16.33;;;9.85;;
32347;SDS011;18821;44.800;10.326;2023-04-24T05:08:36;14.88;;;10.20;;
32347;SDS011;18821;44.800;10.326;2023-04-24T05:11:04;21.52;;;11.40;;
32347;SDS011;18821;44.800;10.326;2023-04-24T05:13:31;19.67;;;11.05;;
32347;SDS011;18821;44.800;10.326;2023-04-24T05:15:58;17.63;;;10.60;;
32347;SDS011;18821;44.800;10.326;2023-04-24T05:18:25;18.00;;;10.07;;
32347;SDS011;18821;44.800;10.326;2023-04-24T05:20:52;18.77;;;11.23;;
32347;SDS011;18821;44.800;10.326;2023-04-24T05:23:18;19.23;;;11.18;;
32347;SDS011;18821;44.800;10.326;2023-04-24T05:25:48;21.35;;;10.55;;
32347;SDS011;18821;44.800;10.326;2023-04-24T05:28:14;24.23;;;12.00;;
32347;SDS011;18821;44.800;10.326;2023-04-24T05:30:41;19.05;;;12.07;;
32347;SDS011;18821;44.800;10.326;2023-04-24T05:33:07;19.83;;;11.45;;
32347;SDS011;18821;44.800;10.326;2023-04-24T05:35:34;20.65;;;12.25;;
32347;SDS011;18821;44.800;10.326;2023-04-24T05:38:01;22.73;;;11.68;;
32347;SDS011;18821;44.800;10.326;2023-04-24T05:40:27;19.77;;;12.18;;
32347;SDS011;18821;44.800;10.326;2023-04-24T05:42:52;16.05;;;11.80;;
32347;SDS011;18821;44.800;10.326;2023-04-24T05:45:19;17.25;;;12.00;;
32347;SDS011;18821;44.800;10.326;2023-04-24T05:47:45;18.08;;;12.23;;
32347;SDS011;18821;44.800;10.326;2023-04-24T05:50:12;21.40;;;12.15;;
32347;SDS011;18821;44.800;10.326;2023-04-24T05:52:38;20.30;;;11.43;;
32347;SDS011;18821;44.800;10.326;2023-04-24T05:55:16;19.77;;;11.63;;
32347;SDS011;18821;44.800;10.326;2023-04-24T05:57:42;20.23;;;12.52;;
32347;SDS011;18821;44.800;10.326;2023-04-24T06:00:09;18.85;;;11.88;;
32347;SDS011;18821;44.800;10.326;2023-04-24T06:02:47;18.67;;;12.98;;
32347;SDS011;18821;44.800;10.326;2023-04-24T06:05:13;19.17;;;12.77;;
32347;SDS011;18821;44.800;10.326;2023-04-24T06:07:40;21.63;;;12.43;;
32347;SDS011;18821;44.800;10.326;2023-04-24T06:10:07;20.58;;;12.25;;
32347;SDS011;18821;44.800;10.326;2023-04-24T06:12:39;17.95;;;12.82;;
32347;SDS011;18821;44.800;10.326;2023-04-24T06:15:10;21.35;;;12.90;;
32347;SDS011;18821;44.800;10.326;2023-04-24T06:17:52;23.60;;;13.07;;
32347;SDS011;18821;44.800;10.326;2023-04-24T06:20:19;21.25;;;13.77;;
32347;SDS011;18821;44.800;10.326;2023-04-24T06:22:45;19.73;;;13.45;;
32347;SDS011;18821;44.800;10.326;2023-04-24T06:25:11;19.15;;;13.75;;
32347;SDS011;18821;44.800;10.326;2023-04-24T06:27:37;22.70;;;13.88;;
32347;SDS011;18821;44.800;10.326;2023-04-24T06:30:03;19.02;;;13.82;;
32347;SDS011;18821;44.800;10.326;2023-04-24T06:32:30;19.27;;;12.52;;
32347;SDS011;18821;44.800;10.326;2023-04-24T06:34:56;19.23;;;12.70;;
32347;SDS011;18821;44.800;10.326;2023-04-24T06:37:22;19.92;;;12.52;;
32347;SDS011;18821;44.800;10.326;2023-04-24T06:39:48;19.40;;;13.75;;
32347;SDS011;18821;44.800;10.326;2023-04-24T06:42:14;21.73;;;13.35;;
32347;SDS011;18821;44.800;10.326;2023-04-24T06:44:42;21.38;;;13.82;;
32347;SDS011;18821;44.800;10.326;2023-04-24T06:47:08;19.23;;;12.10;;
32347;SDS011;18821;44.800;10.326;2023-04-24T06:49:36;20.40;;;11.50;;
32347;SDS011;18821;44.800;10.326;2023-04-24T06:52:02;17.42;;;12.35;;
32347;SDS011;18821;44.800;10.326;2023-04-24T06:54:29;17.35;;;11.70;;
32347;SDS011;18821;44.800;10.326;2023-04-24T06:56:56;16.65;;;10.80;;
32347;SDS011;18821;44.800;10.326;2023-04-24T06:59:29;13.98;;;9.32;;
32347;SDS011;18821;44.800;10.326;2023-04-24T07:01:55;17.75;;;10.77;;
32347;SDS011;18821;44.800;10.326;2023-04-24T07:04:21;15.77;;;9.80;;
32347;SDS011;18821;44.800;10.326;2023-04-24T07:06:47;14.82;;;10.60;;
32347;SDS011;18821;44.800;10.326;2023-04-24T07:09:19;14.75;;;9.23;;
32347;SDS011;18821;44.800;10.326;2023-04-24T07:11:45;15.60;;;8.27;;
32347;SDS011;18821;44.800;10.326;2023-04-24T07:14:13;13.32;;;7.93;;
32347;SDS011;18821;44.800;10.326;2023-04-24T07:16:39;12.13;;;8.68;;
32347;SDS011;18821;44.800;10.326;2023-04-24T07:19:05;12.98;;;8.50;;
32347;SDS011;18821;44.800;10.326;2023-04-24T07:21:31;15.48;;;9.15;;
32347;SDS011;18821;44.800;10.326;2023-04-24T07:23:57;10.55;;;8.57;;
32347;SDS011;18821;44.800;10.326;2023-04-24T07:26:24;9.55;;;7.90;;
32347;SDS011;18821;44.800;10.326;2023-04-24T07:28:51;11.07;;;7.47;;
32347;SDS011;18821;44.800;10.326;2023-04-24T07:31:17;15.52;;;8.52;;
32347;SDS011;18821;44.800;10.326;2023-04-24T07:33:42;13.85;;;8.57;;
32347;SDS011;18821;44.800;10.326;2023-04-24T07:36:08;14.90;;;8.80;;
32347;SDS011;18821;44.800;10.326;2023-04-24T07:38:41;12.85;;;7.80;;
32347;SDS011;18821;44.800;10.326;2023-04-24T07:41:07;16.85;;;9.18;;
32347;SDS011;18821;44.800;10.326;2023-04-24T07:43:33;13.23;;;7.72;;
32347;SDS011;18821;44.800;10.326;2023-04-24T07:45:59;14.02;;;8.32;;
32347;SDS011;18821;44.800;10.326;2023-04-24T07:48:25;11.57;;;7.65;;
32347;SDS011;18821;44.800;10.326;2023-04-24T07:50:51;11.07;;;7.28;;
32347;SDS011;18821;44.800;10.326;2023-04-24T07:53:18;11.77;;;8.20;;
32347;SDS011;18821;44.800;10.326;2023-04-24T07:55:44;11.73;;;7.85;;
32347;SDS011;18821;44.800;10.326;2023-04-24T07:58:10;13.02;;;6.95;;
32347;SDS011;18821;44.800;10.326;2023-04-24T08:00:36;17.35;;;8.20;;
32347;SDS011;18821;44.800;10.326;2023-04-24T08:03:01;11.07;;;8.30;;
32347;SDS011;18821;44.800;10.326;2023-04-24T08:05:27;11.98;;;6.80;;
32347;SDS011;18821;44.800;10.326;2023-04-24T08:07:54;11.73;;;6.78;;
32347;SDS011;18821;44.800;10.326;2023-04-24T08:10:23;9.60;;;6.18;;
32347;SDS011;18821;44.800;10.326;2023-04-24T08:12:49;10.10;;;6.32;;
32347;SDS011;18821;44.800;10.326;2023-04-24T08:15:15;8.40;;;6.50;;
32347;SDS011;18821;44.800;10.326;2023-04-24T08:17:41;9.23;;;6.30;;
32347;SDS011;18821;44.800;10.326;2023-04-24T08:20:08;11.02;;;6.88;;
32347;SDS011;18821;44.800;10.326;2023-04-24T08:22:39;12.95;;;7.10;;
32347;SDS011;18821;44.800;10.326;2023-04-24T08:25:05;8.57;;;6.68;;
32347;SDS011;18821;44.800;10.326;2023-04-24T08:27:32;9.70;;;6.47;;
32347;SDS011;18821;44.800;10.326;2023-04-24T08:29:58;13.35;;;6.78;;
32347;SDS011;18821;44.800;10.326;2023-04-24T08:32:25;13.52;;;6.95;;
32347;SDS011;18821;44.800;10.326;2023-04-24T08:34:55;16.52;;;5.88;;
32347;SDS011;18821;44.800;10.326;2023-04-24T08:37:22;10.18;;;5.70;;
32347;SDS011;18821;44.800;10.326;2023-04-24T08:39:52;8.85;;;5.93;;
32347;SDS011;18821;44.800;10.326;2023-04-24T08:42:18;10.20;;;5.47;;
32347;SDS011;18821;44.800;10.326;2023-04-24T08:44:45;10.07;;;6.32;;
32347;SDS011;18821;44.800;10.326;2023-04-24T08:47:11;10.32;;;6.38;;
32347;SDS011;18821;44.800;10.326;2023-04-24T08:49:37;10.73;;;5.95;;
32347;SDS011;18821;44.800;10.326;2023-04-24T08:52:04;10.95;;;6.85;;
32347;SDS011;18821;44.800;10.326;2023-04-24T08:54:31;10.68;;;6.63;;
32347;SDS011;18821;44.800;10.326;2023-04-24T08:56:59;10.35;;;6.03;;
32347;SDS011;18821;44.800;10.326;2023-04-24T08:59:26;9.18;;;6.88;;
32347;SDS011;18821;44.800;10.326;2023-04-24T09:01:53;10.57;;;6.47;;
32347;SDS011;18821;44.800;10.326;2023-04-24T09:04:20;9.52;;;6.45;;
32347;SDS011;18821;44.800;10.326;2023-04-24T09:06:59;9.60;;;6.10;;
32347;SDS011;18821;44.800;10.326;2023-04-24T09:09:25;9.48;;;6.88;;
32347;SDS011;18821;44.800;10.326;2023-04-24T09:11:54;10.50;;;6.63;;
32347;SDS011;18821;44.800;10.326;2023-04-24T09:14:21;10.10;;;6.03;;
32347;SDS011;18821;44.800;10.326;2023-04-24T09:16:48;9.60;;;7.35;;
32347;SDS011;18821;44.800;10.326;2023-04-24T09:19:14;12.18;;;7.28;;
32347;SDS011;18821;44.800;10.326;2023-04-24T09:21:40;9.63;;;7.35;;
32347;SDS011;18821;44.800;10.326;2023-04-24T09:24:17;8.50;;;5.70;;
32347;SDS011;18821;44.800;10.326;2023-04-24T09:26:47;11.23;;;7.03;;
32347;SDS011;18821;44.800;10.326;2023-04-24T09:29:14;12.88;;;7.30;;
32347;SDS011;18821;44.800;10.326;2023-04-24T09:31:41;11.65;;;7.60;;
32347;SDS011;18821;44.800;10.326;2023-04-24T09:34:07;10.35;;;6.78;;
32347;SDS011;18821;44.800;10.326;2023-04-24T09:39:02;8.98;;;6.40;;
32347;SDS011;18821;44.800;10.326;2023-04-24T09:41:31;10.50;;;5.43;;
32347;SDS011;18821;44.800;10.326;2023-04-24T09:46:59;5.70;;;4.45;;
32347;SDS011;18821;44.800;10.326;2023-04-24T09:49:26;6.85;;;4.65;;
32347;SDS011;18821;44.800;10.326;2023-04-24T09:51:52;6.35;;;4.35;;
32347;SDS011;18821;44.800;10.326;2023-04-24T09:54:35;5.03;;;3.80;;
32347;SDS011;18821;44.800;10.326;2023-04-24T09:57:04;7.40;;;5.47;;
32347;SDS011;18821;44.800;10.326;2023-04-24T09:59:33;7.35;;;4.25;;
32347;SDS011;18821;44.800;10.326;2023-04-24T10:01:59;8.85;;;5.30;;
32347;SDS011;18821;44.800;10.326;2023-04-24T10:04:26;11.82;;;6.78;;
32347;SDS011;18821;44.800;10.326;2023-04-24T10:06:53;9.55;;;5.13;;
32347;SDS011;18821;44.800;10.326;2023-04-24T10:09:24;9.02;;;4.38;;
32347;SDS011;18821;44.800;10.326;2023-04-24T10:11:54;7.95;;;5.13;;
32347;SDS011;18821;44.800;10.326;2023-04-24T10:14:21;11.68;;;6.57;;
32347;SDS011;18821;44.800;10.326;2023-04-24T10:16:48;7.88;;;5.65;;
32347;SDS011;18821;44.800;10.326;2023-04-24T10:19:15;11.25;;;5.95;;
32347;SDS011;18821;44.800;10.326;2023-04-24T10:21:44;7.15;;;6.43;;
32347;SDS011;18821;44.800;10.326;2023-04-24T10:24:15;8.98;;;6.35;;
32347;SDS011;18821;44.800;10.326;2023-04-24T10:26:43;13.35;;;6.80;;
32347;SDS011;18821;44.800;10.326;2023-04-24T10:29:15;7.95;;;6.13;;
32347;SDS011;18821;44.800;10.326;2023-04-24T10:31:42;9.15;;;6.32;;
32347;SDS011;18821;44.800;10.326;2023-04-24T10:34:11;8.18;;;5.28;;
32347;SDS011;18821;44.800;10.326;2023-04-24T10:36:38;5.60;;;5.05;;
32347;SDS011;18821;44.800;10.326;2023-04-24T10:39:09;5.25;;;4.35;;
32347;SDS011;18821;44.800;10.326;2023-04-24T10:41:38;5.78;;;4.15;;
32347;SDS011;18821;44.800;10.326;2023-04-24T10:44:07;8.75;;;4.55;;
32347;SDS011;18821;44.800;10.326;2023-04-24T10:46:35;4.47;;;3.65;;
32347;SDS011;18821;44.800;10.326;2023-04-24T10:49:05;7.10;;;5.35;;
32347;SDS011;18821;44.800;10.326;2023-04-24T10:51:52;8.68;;;5.82;;
32347;SDS011;18821;44.800;10.326;2023-04-24T10:54:29;9.00;;;6.55;;
32347;SDS011;18821;44.800;10.326;2023-04-24T10:59:43;6.25;;;3.53;;
32347;SDS011;18821;44.800;10.326;2023-04-24T11:02:10;6.90;;;4.20;;
32347;SDS011;18821;44.800;10.326;2023-04-24T11:04:36;5.25;;;3.88;;
32347;SDS011;18821;44.800;10.326;2023-04-24T11:07:05;7.97;;;4.22;;
32347;SDS011;18821;44.800;10.326;2023-04-24T11:09:31;8.73;;;7.32;;
32347;SDS011;18821;44.800;10.326;2023-04-24T11:12:04;11.40;;;7.00;;
32347;SDS011;18821;44.800;10.326;2023-04-24T11:15:17;7.32;;;4.65;;
32347;SDS011;18821;44.800;10.326;2023-04-24T11:17:34;5.97;;;3.50;;
32347;SDS011;18821;44.800;10.326;2023-04-24T11:20:06;6.78;;;6.00;;
32347;SDS011;18821;44.800;10.326;2023-04-24T11:22:36;7.15;;;5.95;;
32347;SDS011;18821;44.800;10.326;2023-04-24T11:25:06;9.68;;;7.03;;
32347;SDS011;18821;44.800;10.326;2023-04-24T11:27:43;11.15;;;7.88;;
32347;SDS011;18821;44.800;10.326;2023-04-24T11:30:11;11.15;;;7.47;;
32347;SDS011;18821;44.800;10.326;2023-04-24T11:32:42;7.78;;;6.97;;
32347;SDS011;18821;44.800;10.326;2023-04-24T11:35:18;11.70;;;6.28;;
32347;SDS011;18821;44.800;10.326;2023-04-24T11:37:47;10.55;;;7.03;;
32347;SDS011;18821;44.800;10.326;2023-04-24T11:40:15;6.97;;;5.90;;
32347;SDS011;18821;44.800;10.326;2023-04-24T11:42:43;9.40;;;6.80;;
32347;SDS011;18821;44.800;10.326;2023-04-24T11:45:13;8.82;;;6.70;;
32347;SDS011;18821;44.800;10.326;2023-04-24T11:47:40;7.95;;;6.32;;
32347;SDS011;18821;44.800;10.326;2023-04-24T11:50:10;9.98;;;7.22;;
32347;SDS011;18821;44.800;10.326;2023-04-24T11:52:38;9.30;;;6.88;;
32347;SDS011;18821;44.800;10.326;2023-04-24T11:57:47;8.55;;;6.60;;
32347;SDS011;18821;44.800;10.326;2023-04-24T12:00:15;5.47;;;4.75;;
32347;SDS011;18821;44.800;10.326;2023-04-24T12:02:48;7.70;;;5.70;;
32347;SDS011;18821;44.800;10.326;2023-04-24T12:07:48;9.00;;;6.38;;
32347;SDS011;18821;44.800;10.326;2023-04-24T12:10:19;10.32;;;5.90;;
32347;SDS011;18821;44.800;10.326;2023-04-24T12:12:49;6.53;;;5.43;;
32347;SDS011;18821;44.800;10.326;2023-04-24T12:15:17;9.25;;;5.75;;
32347;SDS011;18821;44.800;10.326;2023-04-24T12:17:44;6.97;;;4.60;;
32347;SDS011;18821;44.800;10.326;2023-04-24T12:20:11;8.88;;;6.35;;
32347;SDS011;18821;44.800;10.326;2023-04-24T12:22:47;8.40;;;6.20;;
32347;SDS011;18821;44.800;10.326;2023-04-24T12:25:15;8.07;;;5.40;;
32347;SDS011;18821;44.800;10.326;2023-04-24T12:27:42;7.13;;;5.70;;
32347;SDS011;18821;44.800;10.326;2023-04-24T12:30:13;6.63;;;5.47;;
32347;SDS011;18821;44.800;10.326;2023-04-24T12:32:41;7.30;;;4.93;;
32347;SDS011;18821;44.800;10.326;2023-04-24T12:35:08;9.70;;;5.50;;
32347;SDS011;18821;44.800;10.326;2023-04-24T12:37:34;7.97;;;5.38;;
32347;SDS011;18821;44.800;10.326;2023-04-24T12:40:02;6.72;;;5.20;;
32347;SDS011;18821;44.800;10.326;2023-04-24T12:42:34;14.20;;;6.65;;
32347;SDS011;18821;44.800;10.326;2023-04-24T12:45:02;6.30;;;4.78;;
32347;SDS011;18821;44.800;10.326;2023-04-24T12:47:31;6.85;;;5.57;;
32347;SDS011;18821;44.800;10.326;2023-04-24T12:49:57;5.78;;;5.00;;
32347;SDS011;18821;44.800;10.326;2023-04-24T12:52:24;7.90;;;5.05;;
32347;SDS011;18821;44.800;10.326;2023-04-24T12:54:55;6.85;;;5.50;;
32347;SDS011;18821;44.800;10.326;2023-04-24T12:57:23;6.85;;;5.32;;
32347;SDS011;18821;44.800;10.326;2023-04-24T12:59:50;6.43;;;4.35;;
32347;SDS011;18821;44.800;10.326;2023-04-24T13:02:16;7.47;;;4.25;;
32347;SDS011;18821;44.800;10.326;2023-04-24T13:04:46;5.75;;;3.72;;
32347;SDS011;18821;44.800;10.326;2023-04-24T13:07:13;5.95;;;4.43;;
32347;SDS011;18821;44.800;10.326;2023-04-24T13:09:40;6.03;;;4.80;;
32347;SDS011;18821;44.800;10.326;2023-04-24T13:12:07;5.38;;;4.40;;
32347;SDS011;18821;44.800;10.326;2023-04-24T13:14:34;6.10;;;3.60;;
32347;SDS011;18821;44.800;10.326;2023-04-24T13:17:00;8.23;;;6.15;;
32347;SDS011;18821;44.800;10.326;2023-04-24T13:19:27;5.68;;;4.72;;
32347;SDS011;18821;44.800;10.326;2023-04-24T13:21:56;5.88;;;4.72;;
32347;SDS011;18821;44.800;10.326;2023-04-24T13:24:23;5.75;;;4.72;;
32347;SDS011;18821;44.800;10.326;2023-04-24T13:26:52;6.88;;;5.03;;
32347;SDS011;18821;44.800;10.326;2023-04-24T13:29:18;4.75;;;4.25;;
32347;SDS011;18821;44.800;10.326;2023-04-24T13:31:45;5.90;;;3.45;;
32347;SDS011;18821;44.800;10.326;2023-04-24T13:34:12;5.85;;;2.97;;
32347;SDS011;18821;44.800;10.326;2023-04-24T13:36:38;5.47;;;3.30;;
32347;SDS011;18821;44.800;10.326;2023-04-24T13:39:05;4.35;;;3.40;;
32347;SDS011;18821;44.800;10.326;2023-04-24T13:41:32;3.58;;;3.05;;
32347;SDS011;18821;44.800;10.326;2023-04-24T13:43:58;6.75;;;4.55;;
32347;SDS011;18821;44.800;10.326;2023-04-24T13:46:24;6.05;;;3.25;;
32347;SDS011;18821;44.800;10.326;2023-04-24T13:48:50;3.85;;;3.45;;
32347;SDS011;18821;44.800;10.326;2023-04-24T13:51:16;8.10;;;3.72;;
32347;SDS011;18821;44.800;10.326;2023-04-24T13:53:42;4.22;;;3.50;;
32347;SDS011;18821;44.800;10.326;2023-04-24T13:56:08;11.70;;;4.03;;
32347;SDS011;18821;44.800;10.326;2023-04-24T13:58:34;6.43;;;3.70;;
32347;SDS011;18821;44.800;10.326;2023-04-24T14:01:03;9.02;;;3.65;;
32347;SDS011;18821;44.800;10.326;2023-04-24T14:03:30;8.57;;;3.85;;
32347;SDS011;18821;44.800;10.326;2023-04-24T14:05:56;4.85;;;3.17;;
32347;SDS011;18821;44.800;10.326;2023-04-24T14:08:22;4.40;;;3.67;;
32347;SDS011;18821;44.800;10.326;2023-04-24T14:10:49;2.70;;;2.20;;
32347;SDS011;18821;44.800;10.326;2023-04-24T14:13:16;3.15;;;2.17;;
32347;SDS011;18821;44.800;10.326;2023-04-24T14:15:42;5.85;;;2.20;;
32347;SDS011;18821;44.800;10.326;2023-04-24T14:18:08;3.25;;;2.00;;
32347;SDS011;18821;44.800;10.326;2023-04-24T14:20:34;7.28;;;2.58;;
32347;SDS011;18821;44.800;10.326;2023-04-24T14:23:00;4.75;;;2.30;;
32347;SDS011;18821;44.800;10.326;2023-04-24T14:25:26;8.85;;;2.13;;
32347;SDS011;18821;44.800;10.326;2023-04-24T14:27:52;7.68;;;1.90;;
32347;SDS011;18821;44.800;10.326;2023-04-24T14:30:18;7.90;;;2.83;;
32347;SDS011;18821;44.800;10.326;2023-04-24T14:32:44;3.47;;;2.80;;
32347;SDS011;18821;44.800;10.326;2023-04-24T14:35:10;1.92;;;1.40;;
32347;SDS011;18821;44.800;10.326;2023-04-24T14:37:36;3.65;;;1.63;;
32347;SDS011;18821;44.800;10.326;2023-04-24T14:40:03;9.07;;;1.35;;
32347;SDS011;18821;44.800;10.326;2023-04-24T14:42:31;3.00;;;1.10;;